createdAt,value
2018-09-19T00:01:12.914Z,18.80
2018-09-19T00:03:43.321Z,18.90
2018-09-19T00:06:14.531Z,18.80
2018-09-19T00:08:45.603Z,18.80
2018-09-19T00:11:16.000Z,18.80
2018-09-19T00:13:46.437Z,18.80
2018-09-19T00:16:16.835Z,18.80
2018-09-19T00:18:47.162Z,18.70
2018-09-19T00:21:24.747Z,18.70
2018-09-19T00:23:55.154Z,18.70
2018-09-19T00:26:25.558Z,18.70
2018-09-19T00:28:56.851Z,18.70
2018-09-19T00:31:30.324Z,18.70
2018-09-19T00:34:00.655Z,18.60
2018-09-19T00:36:31.070Z,18.60
2018-09-19T00:39:01.417Z,18.70
2018-09-19T00:41:32.774Z,18.60
2018-09-19T00:44:09.349Z,18.60
2018-09-19T00:46:39.741Z,18.50
2018-09-19T00:49:10.064Z,18.50
2018-09-19T00:51:41.188Z,18.50
2018-09-19T00:54:12.357Z,18.50
2018-09-19T00:56:42.761Z,18.50
2018-09-19T00:59:13.265Z,18.50
2018-09-19T01:01:46.399Z,18.40
2018-09-19T01:04:17.568Z,18.40
2018-09-19T01:06:47.998Z,18.30
2018-09-19T01:09:20.459Z,18.40
2018-09-19T01:11:50.803Z,18.40
2018-09-19T01:14:22.251Z,18.40
2018-09-19T01:16:52.585Z,18.40
2018-09-19T01:19:25.034Z,18.40
2018-09-19T01:21:55.453Z,18.40
2018-09-19T01:24:26.627Z,18.30
2018-09-19T01:27:01.232Z,18.30
2018-09-19T01:29:51.948Z,18.30
2018-09-19T01:32:22.403Z,18.40
2018-09-19T01:34:52.767Z,18.40
2018-09-19T01:37:24.648Z,18.40
2018-09-19T01:39:55.074Z,18.30
2018-09-19T01:42:26.244Z,18.40
2018-09-19T01:45:00.734Z,18.40
2018-09-19T01:47:31.940Z,18.40
2018-09-19T01:50:03.385Z,18.40
2018-09-19T01:52:34.798Z,18.50
2018-09-19T01:55:05.220Z,18.50
2018-09-19T01:57:36.568Z,18.40
2018-09-19T02:00:06.977Z,18.40
2018-09-19T02:02:38.205Z,18.40
2018-09-19T02:05:08.580Z,18.40
2018-09-19T02:07:38.994Z,18.40
2018-09-19T02:10:09.442Z,18.50
2018-09-19T02:12:41.808Z,18.40
2018-09-19T02:15:12.205Z,18.50
2018-09-19T02:17:43.329Z,18.30
2018-09-19T02:20:19.652Z,18.40
2018-09-19T02:22:52.128Z,18.30
2018-09-19T02:25:22.514Z,18.40
2018-09-19T02:27:53.692Z,18.40
2018-09-19T02:30:24.127Z,18.40
2018-09-19T02:32:54.469Z,18.40
2018-09-19T02:35:24.787Z,18.40
2018-09-19T02:37:57.615Z,18.40
2018-09-19T02:40:28.710Z,18.30
2018-09-19T02:42:59.120Z,18.30
2018-09-19T02:45:30.572Z,18.30
2018-09-19T02:48:00.973Z,18.30
2018-09-19T02:50:31.308Z,18.30
2018-09-19T02:53:01.725Z,18.40
2018-09-19T02:55:32.068Z,18.40
2018-09-19T03:00:50.228Z,18.40
2018-09-19T03:03:20.618Z,18.40
2018-09-19T03:05:51.001Z,18.40
2018-09-19T03:08:25.442Z,18.30
2018-09-19T03:10:55.823Z,18.30
2018-09-19T03:13:26.217Z,18.30
2018-09-19T03:15:56.575Z,18.30
2018-09-19T03:18:26.982Z,18.30
2018-09-19T03:20:58.067Z,18.30
2018-09-19T03:23:28.491Z,18.30
2018-09-19T03:25:58.828Z,18.20
2018-09-19T03:28:30.262Z,18.20
2018-09-19T03:31:00.622Z,18.30
2018-09-19T03:33:49.261Z,18.30
2018-09-19T03:36:21.668Z,18.30
2018-09-19T03:38:52.056Z,18.30
2018-09-19T03:41:22.441Z,18.30
2018-09-19T03:43:52.810Z,18.30
2018-09-19T03:46:23.228Z,18.30
2018-09-19T03:48:53.618Z,18.30
2018-09-19T03:51:24.881Z,18.20
2018-09-19T03:54:01.360Z,18.20
2018-09-19T03:56:31.812Z,18.20
2018-09-19T03:59:08.556Z,18.20
2018-09-19T04:01:39.750Z,18.20
2018-09-19T04:04:11.173Z,18.20
2018-09-19T04:06:42.598Z,18.10
2018-09-19T04:09:13.055Z,18.10
2018-09-19T04:11:45.516Z,18.20
2018-09-19T04:14:15.933Z,18.10
2018-09-19T04:16:46.289Z,18.20
2018-09-19T04:19:18.743Z,18.20
2018-09-19T04:21:49.146Z,18.10
2018-09-19T04:24:20.269Z,18.00
2018-09-19T04:26:50.679Z,18.00
2018-09-19T04:29:21.088Z,18.00
2018-09-19T04:31:53.389Z,17.90
2018-09-19T04:34:23.797Z,17.90
2018-09-19T04:37:01.391Z,17.80
2018-09-19T04:39:35.872Z,17.80
2018-09-19T04:42:06.278Z,17.80
2018-09-19T04:44:37.466Z,17.80
2018-09-19T04:47:07.798Z,17.70
2018-09-19T04:49:38.195Z,17.70
2018-09-19T04:52:08.573Z,17.70
2018-09-19T04:54:38.989Z,17.70
2018-09-19T04:57:09.396Z,17.70
2018-09-19T04:59:39.817Z,17.60
2018-09-19T05:02:10.226Z,17.60
2018-09-19T05:04:40.636Z,17.60
2018-09-19T05:07:12.060Z,17.50
2018-09-19T05:09:42.436Z,17.50
2018-09-19T05:12:12.870Z,17.50
2018-09-19T05:14:44.063Z,17.40
2018-09-19T05:17:14.538Z,17.40
2018-09-19T05:19:53.144Z,17.50
2018-09-19T05:22:25.447Z,17.40
2018-09-19T05:24:56.877Z,17.40
2018-09-19T05:27:28.270Z,17.40
2018-09-19T05:30:02.762Z,17.40
2018-09-19T05:32:33.177Z,17.40
2018-09-19T05:35:03.607Z,17.30
2018-09-19T05:37:34.763Z,17.30
2018-09-19T05:40:05.191Z,17.30
2018-09-19T05:42:35.543Z,17.30
2018-09-19T05:45:05.867Z,17.30
2018-09-19T05:47:36.192Z,17.30
2018-09-19T05:50:26.941Z,17.30
2018-09-19T05:52:58.099Z,17.20
2018-09-19T05:55:28.544Z,17.20
2018-09-19T05:57:58.981Z,17.20
2018-09-19T06:00:29.398Z,17.30
2018-09-19T06:02:59.791Z,17.20
2018-09-19T06:05:30.165Z,17.20
2018-09-19T06:08:06.720Z,17.30
2018-09-19T06:10:37.160Z,17.30
2018-09-19T06:13:12.701Z,17.20
2018-09-19T06:15:43.142Z,17.20
2018-09-19T06:18:32.909Z,17.20
2018-09-19T06:21:04.049Z,17.20
2018-09-19T06:23:34.382Z,17.20
2018-09-19T06:26:04.759Z,17.10
2018-09-19T06:28:37.206Z,17.10
2018-09-19T06:31:07.532Z,17.00
2018-09-19T06:33:40.646Z,17.10
2018-09-19T06:36:11.305Z,17.10
2018-09-19T06:38:41.652Z,17.10
2018-09-19T06:41:12.909Z,17.40
2018-09-19T06:43:45.379Z,17.40
2018-09-19T06:46:16.791Z,17.40
2018-09-19T06:48:47.954Z,17.30
2018-09-19T06:51:19.073Z,17.40
2018-09-19T06:53:50.241Z,17.50
2018-09-19T06:56:20.574Z,17.40
2018-09-19T06:58:51.000Z,17.50
2018-09-19T07:01:21.399Z,17.50
2018-09-19T07:03:51.728Z,17.60
2018-09-19T07:06:22.152Z,17.70
2018-09-19T07:08:52.543Z,17.70
2018-09-19T07:14:16.343Z,17.80
2018-09-19T07:16:46.761Z,17.80
2018-09-19T07:19:17.142Z,17.70
2018-09-19T07:21:48.226Z,17.80
2018-09-19T07:24:20.685Z,17.80
2018-09-19T07:26:51.071Z,17.90
2018-09-19T07:29:21.467Z,18.00
2018-09-19T07:31:54.960Z,18.00
2018-09-19T07:34:45.413Z,18.10
2018-09-19T07:37:16.526Z,18.10
2018-09-19T07:39:46.918Z,18.00
2018-09-19T07:42:21.434Z,18.00
2018-09-19T07:44:51.848Z,18.10
2018-09-19T07:47:22.244Z,18.20
2018-09-19T07:49:52.669Z,18.30
2018-09-19T07:52:23.828Z,18.60
2018-09-19T07:54:54.212Z,18.50
2018-09-19T07:57:24.632Z,18.60
2018-09-19T08:00:15.450Z,18.50
2018-09-19T08:03:06.020Z,18.50
2018-09-19T08:05:36.445Z,18.60
2018-09-19T08:08:07.569Z,18.80
2018-09-19T08:10:38.178Z,18.80
2018-09-19T08:13:10.364Z,18.80
2018-09-19T08:15:41.448Z,18.80
2018-09-19T08:18:30.975Z,18.80
2018-09-19T08:21:02.134Z,18.90
2018-09-19T08:23:32.546Z,18.90
2018-09-19T08:26:02.974Z,18.90
2018-09-19T08:28:33.460Z,19.00
2018-09-19T08:31:03.824Z,19.00
2018-09-19T08:33:34.241Z,19.10
2018-09-19T08:36:04.653Z,19.20
2018-09-19T08:38:36.064Z,19.20
2018-09-19T08:41:06.495Z,19.20
2018-09-19T08:43:37.087Z,19.20
2018-09-19T08:46:08.264Z,19.10
2018-09-19T08:48:38.703Z,19.10
2018-09-19T08:51:11.162Z,19.10
2018-09-19T08:53:42.304Z,19.40
2018-09-19T08:56:13.032Z,19.30
2018-09-19T08:58:43.439Z,19.50
2018-09-19T09:01:13.849Z,19.50
2018-09-19T09:03:44.283Z,19.50
2018-09-19T09:06:14.681Z,19.80
2018-09-19T09:08:45.082Z,19.80
2018-09-19T09:11:15.454Z,19.80
2018-09-19T09:13:45.857Z,19.90
2018-09-19T09:16:23.596Z,19.80
2018-09-19T09:18:54.001Z,19.90
2018-09-19T09:21:24.331Z,19.90
2018-09-19T09:23:54.765Z,19.90
2018-09-19T09:26:25.180Z,19.90
2018-09-19T09:28:55.586Z,19.90
2018-09-19T09:31:30.104Z,19.80
2018-09-19T09:34:07.395Z,19.80
2018-09-19T09:36:38.553Z,20.10
2018-09-19T09:39:08.935Z,20.00
2018-09-19T09:41:39.340Z,20.30
2018-09-19T09:44:10.530Z,20.30
2018-09-19T09:46:46.077Z,20.30
2018-09-19T09:49:17.612Z,20.40
2018-09-19T09:51:48.961Z,20.40
2018-09-19T09:54:19.369Z,20.30
2018-09-19T09:56:49.801Z,20.30
2018-09-19T09:59:20.955Z,20.20
2018-09-19T10:01:51.357Z,20.20
2018-09-19T10:04:21.795Z,20.30
2018-09-19T10:06:52.881Z,20.70
2018-09-19T10:09:27.300Z,20.60
2018-09-19T10:11:59.781Z,20.60
2018-09-19T10:14:37.429Z,20.40
2018-09-19T10:17:08.613Z,20.30
2018-09-19T10:19:39.790Z,20.30
2018-09-19T10:22:10.123Z,20.30
2018-09-19T10:24:41.591Z,20.60
2018-09-19T10:27:11.916Z,20.80
2018-09-19T10:29:42.290Z,20.90
2018-09-19T10:32:13.460Z,20.90
2018-09-19T10:34:43.854Z,20.90
2018-09-19T10:37:14.257Z,20.80
2018-09-19T10:39:44.684Z,20.70
2018-09-19T10:42:15.837Z,20.30
2018-09-19T10:44:46.161Z,20.30
2018-09-19T10:47:17.076Z,20.30
2018-09-19T10:49:47.585Z,20.70
2018-09-19T10:52:18.017Z,21.10
2018-09-19T10:54:48.488Z,21.40
2018-09-19T10:57:19.843Z,21.30
2018-09-19T10:59:50.165Z,21.50
2018-09-19T11:02:22.554Z,21.40
2018-09-19T11:04:53.979Z,21.40
2018-09-19T11:07:24.562Z,21.20
2018-09-19T11:09:56.815Z,21.30
2018-09-19T11:12:46.594Z,21.30
2018-09-19T11:15:23.137Z,21.40
2018-09-19T11:17:53.523Z,21.40
2018-09-19T11:20:23.917Z,21.30
2018-09-19T11:22:59.448Z,21.60
2018-09-19T11:25:29.847Z,21.30
2018-09-19T11:28:00.266Z,21.10
2018-09-19T11:33:21.062Z,20.80
2018-09-19T11:35:52.475Z,20.80
2018-09-19T11:38:22.861Z,20.70
2018-09-19T11:40:53.262Z,20.70
2018-09-19T11:43:25.025Z,20.80
2018-09-19T11:45:55.284Z,21.00
2018-09-19T11:48:26.440Z,21.40
2018-09-19T11:50:58.335Z,21.40
2018-09-19T11:53:34.860Z,21.40
2018-09-19T11:56:06.152Z,21.40
2018-09-19T11:58:43.870Z,21.40
2018-09-19T12:01:14.980Z,21.60
2018-09-19T12:03:45.367Z,21.60
2018-09-19T12:06:15.754Z,21.50
2018-09-19T12:09:07.033Z,21.60
2018-09-19T12:11:37.432Z,21.70
2018-09-19T12:14:07.819Z,21.70
2018-09-19T12:16:38.247Z,21.80
2018-09-19T12:19:30.876Z,22.20
2018-09-19T12:22:02.015Z,22.20
2018-09-19T12:24:32.346Z,22.20
2018-09-19T12:27:03.380Z,22.10
2018-09-19T12:29:33.734Z,22.20
2018-09-19T12:32:04.138Z,22.30
2018-09-19T12:34:34.456Z,22.30
2018-09-19T12:37:04.889Z,22.30
2018-09-19T12:39:35.379Z,22.10
2018-09-19T12:42:05.718Z,22.10
2018-09-19T12:44:36.148Z,22.20
2018-09-19T12:47:07.318Z,22.40
2018-09-19T12:49:37.722Z,22.40
2018-09-19T12:52:08.913Z,22.30
2018-09-19T12:54:39.312Z,22.30
2018-09-19T12:57:09.702Z,22.30
2018-09-19T12:59:40.074Z,22.20
2018-09-19T13:02:10.452Z,22.20
2018-09-19T13:04:40.836Z,22.30
2018-09-19T13:07:11.235Z,22.40
2018-09-19T13:09:41.618Z,22.60
2018-09-19T13:12:11.997Z,22.50
2018-09-19T13:14:42.853Z,22.50
2018-09-19T13:17:13.171Z,22.60
2018-09-19T13:19:43.554Z,22.80
2018-09-19T13:22:14.741Z,22.80
2018-09-19T13:24:45.140Z,22.80
2018-09-19T13:27:15.561Z,22.90
2018-09-19T13:29:47.934Z,22.90
2018-09-19T13:32:18.265Z,22.70
2018-09-19T13:34:48.650Z,22.80
2018-09-19T13:37:19.081Z,22.80
2018-09-19T13:39:49.519Z,22.60
2018-09-19T13:42:19.923Z,22.80
2018-09-19T13:44:50.350Z,22.70
2018-09-19T13:47:22.799Z,22.70
2018-09-19T13:49:53.174Z,22.80
2018-09-19T13:52:24.542Z,22.80
2018-09-19T13:54:57.681Z,22.90
2018-09-19T13:57:34.238Z,22.80
2018-09-19T14:00:04.637Z,23.10
2018-09-19T14:02:36.478Z,22.80
2018-09-19T14:05:06.902Z,22.80
2018-09-19T14:07:37.272Z,22.80
2018-09-19T14:10:07.649Z,22.90
2018-09-19T14:12:38.143Z,22.90
2018-09-19T14:15:27.916Z,22.80
2018-09-19T14:17:58.336Z,22.70
2018-09-19T14:20:28.735Z,22.80
2018-09-19T14:22:59.130Z,22.70
2018-09-19T14:25:29.544Z,22.90
2018-09-19T14:28:00.893Z,22.90
2018-09-19T14:30:33.385Z,22.90
2018-09-19T14:33:04.591Z,22.90
2018-09-19T14:35:35.125Z,22.90
2018-09-19T14:38:05.393Z,23.00
2018-09-19T14:40:35.808Z,22.90
2018-09-19T14:43:06.189Z,22.90
2018-09-19T14:45:38.555Z,22.70
2018-09-19T14:48:08.957Z,22.80
2018-09-19T14:50:39.348Z,22.80
2018-09-19T14:53:30.150Z,22.90
2018-09-19T14:56:00.543Z,22.90
2018-09-19T14:58:30.927Z,22.70
2018-09-19T15:01:01.364Z,22.80
2018-09-19T15:03:36.837Z,22.80
2018-09-19T15:06:08.015Z,22.70
2018-09-19T15:08:41.456Z,22.60
2018-09-19T15:11:12.014Z,22.70
2018-09-19T15:13:42.445Z,22.70
2018-09-19T15:16:12.843Z,22.60
2018-09-19T15:18:43.226Z,22.50
2018-09-19T15:21:20.794Z,22.50
2018-09-19T15:23:51.905Z,22.50
2018-09-19T15:26:22.336Z,22.50
2018-09-19T15:28:52.674Z,22.50
2018-09-19T15:31:23.836Z,22.50
2018-09-19T15:33:54.213Z,22.50
2018-09-19T15:36:24.641Z,22.40
2018-09-19T15:38:55.025Z,22.50
2018-09-19T15:41:25.421Z,22.50
2018-09-19T15:43:56.705Z,22.50
2018-09-19T15:49:13.305Z,22.40
2018-09-19T15:51:44.433Z,22.40
2018-09-19T15:54:15.568Z,22.20
2018-09-19T15:56:45.998Z,22.20
2018-09-19T15:59:16.380Z,22.10
2018-09-19T16:01:50.852Z,22.20
2018-09-19T16:04:22.025Z,22.20
2018-09-19T16:06:52.417Z,22.10
2018-09-19T16:09:22.850Z,22.30
2018-09-19T16:11:54.231Z,22.30
2018-09-19T16:14:27.433Z,22.20
2018-09-19T16:16:57.824Z,22.20
2018-09-19T16:19:29.014Z,22.20
2018-09-19T16:22:04.678Z,22.10
2018-09-19T16:24:53.831Z,22.20
2018-09-19T16:27:24.226Z,22.20
2018-09-19T16:29:55.368Z,22.10
2018-09-19T16:32:26.558Z,22.20
2018-09-19T16:35:04.259Z,22.20
2018-09-19T16:37:34.918Z,22.10
2018-09-19T16:40:05.320Z,22.10
2018-09-19T16:42:55.112Z,22.10
2018-09-19T16:45:25.541Z,22.00
2018-09-19T16:47:55.896Z,22.00
2018-09-19T16:50:26.302Z,22.00
2018-09-19T16:52:56.762Z,21.90
2018-09-19T16:55:46.500Z,22.00
2018-09-19T16:58:16.828Z,22.00
2018-09-19T17:00:48.241Z,22.00
2018-09-19T17:03:18.664Z,21.90
2018-09-19T17:05:49.062Z,21.90
2018-09-19T17:08:22.046Z,21.80
2018-09-19T17:10:54.041Z,21.80
2018-09-19T17:13:24.421Z,21.80
2018-09-19T17:15:55.570Z,21.80
2018-09-19T17:18:25.982Z,21.70
2018-09-19T17:20:56.361Z,21.70
2018-09-19T17:23:26.726Z,21.70
2018-09-19T17:25:57.203Z,21.70
2018-09-19T17:28:28.354Z,21.60
2018-09-19T17:30:58.738Z,21.60
2018-09-19T17:33:29.154Z,21.60
2018-09-19T17:35:59.533Z,21.60
2018-09-19T17:38:29.938Z,21.50
2018-09-19T17:41:01.356Z,21.40
2018-09-19T17:43:35.329Z,21.40
2018-09-19T17:46:10.686Z,21.40
2018-09-19T17:48:41.070Z,21.40
2018-09-19T17:51:11.453Z,21.30
2018-09-19T17:53:41.878Z,21.30
2018-09-19T17:56:12.260Z,21.30
2018-09-19T17:58:43.424Z,21.20
2018-09-19T18:01:13.956Z,21.20
2018-09-19T18:03:44.409Z,21.10
2018-09-19T18:06:14.751Z,21.10
2018-09-19T18:09:04.548Z,21.10
2018-09-19T18:11:34.936Z,21.10
2018-09-19T18:14:10.441Z,21.00
2018-09-19T18:16:41.646Z,20.90
2018-09-19T18:19:32.348Z,20.90
2018-09-19T18:22:02.705Z,20.90
2018-09-19T18:24:33.858Z,20.80
2018-09-19T18:27:04.187Z,20.80
2018-09-19T18:29:34.600Z,20.80
2018-09-19T18:32:04.992Z,20.70
2018-09-19T18:34:36.408Z,20.70
2018-09-19T18:37:06.839Z,20.70
2018-09-19T18:39:37.156Z,20.60
2018-09-19T18:42:07.549Z,20.60
2018-09-19T18:44:37.994Z,20.50
2018-09-19T18:47:08.374Z,20.50
2018-09-19T18:49:40.818Z,20.40
2018-09-19T18:52:11.250Z,20.40
2018-09-19T18:54:41.637Z,20.40
2018-09-19T18:57:12.034Z,20.30
2018-09-19T18:59:42.394Z,20.30
2018-09-19T19:02:12.786Z,20.20
2018-09-19T19:04:43.106Z,20.20
2018-09-19T19:07:20.847Z,20.20
2018-09-19T19:09:52.010Z,20.20
2018-09-19T19:12:22.360Z,20.20
2018-09-19T19:14:52.759Z,20.20
2018-09-19T19:17:23.136Z,20.20
2018-09-19T19:22:41.526Z,20.10
2018-09-19T19:25:13.075Z,20.00
2018-09-19T19:27:42.308Z,20.00
2018-09-19T19:30:15.923Z,20.10
2018-09-19T19:32:46.287Z,20.10
2018-09-19T19:35:16.693Z,20.00
2018-09-19T19:37:54.442Z,19.90
2018-09-19T19:40:24.818Z,19.90
2018-09-19T19:42:55.211Z,19.90
2018-09-19T19:45:26.053Z,19.80
2018-09-19T19:47:57.226Z,19.80
2018-09-19T19:50:28.324Z,19.70
2018-09-19T19:52:58.730Z,19.80
2018-09-19T19:55:29.059Z,19.80
2018-09-19T19:57:59.461Z,19.80
2018-09-19T20:00:29.885Z,19.70
2018-09-19T20:03:03.328Z,19.70
2018-09-19T20:05:34.500Z,19.60
2018-09-19T20:08:04.972Z,19.60
2018-09-19T20:10:35.356Z,19.60
2018-09-19T20:13:05.724Z,19.70
2018-09-19T20:15:36.901Z,19.70
2018-09-19T20:18:11.144Z,19.70
2018-09-19T20:20:41.578Z,19.70
2018-09-19T20:23:12.048Z,19.70
2018-09-19T20:25:48.558Z,19.60
2018-09-19T20:28:19.785Z,19.60
2018-09-19T20:30:50.172Z,19.60
2018-09-19T20:33:26.744Z,19.60
2018-09-19T20:35:59.488Z,19.60
2018-09-19T20:38:29.912Z,19.60
2018-09-19T20:41:00.358Z,19.60
2018-09-19T20:43:30.767Z,19.60
2018-09-19T20:46:02.948Z,19.60
2018-09-19T20:48:33.799Z,19.60
2018-09-19T20:51:04.179Z,19.50
2018-09-19T20:53:35.338Z,19.60
2018-09-19T20:56:06.526Z,19.60
2018-09-19T20:58:57.280Z,19.60
2018-09-19T21:01:27.665Z,19.60
2018-09-19T21:03:58.051Z,19.50
2018-09-19T21:06:28.448Z,19.50
2018-09-19T21:08:58.867Z,19.50
2018-09-19T21:11:29.264Z,19.40
2018-09-19T21:14:05.838Z,19.40
2018-09-19T21:16:36.257Z,19.40
2018-09-19T21:19:10.756Z,19.40
2018-09-19T21:21:41.125Z,19.40
2018-09-19T21:24:11.523Z,19.30
2018-09-19T21:26:41.938Z,19.30
2018-09-19T21:29:12.368Z,19.30
2018-09-19T21:31:42.770Z,19.20
2018-09-19T21:34:13.928Z,19.20
2018-09-19T21:36:44.345Z,19.20
2018-09-19T21:39:15.511Z,19.20
2018-09-19T21:41:45.904Z,19.20
2018-09-19T21:44:16.360Z,19.20
2018-09-19T21:46:48.836Z,19.10
2018-09-19T21:49:19.233Z,19.00
2018-09-19T21:51:49.657Z,19.10
2018-09-19T21:54:19.996Z,19.00
2018-09-19T21:56:51.153Z,19.00
2018-09-19T21:59:21.588Z,19.00
2018-09-19T22:01:51.982Z,19.00
2018-09-19T22:04:23.130Z,18.90
2018-09-19T22:06:53.561Z,18.90
2018-09-19T22:09:24.719Z,18.90
2018-09-19T22:11:55.873Z,18.80
2018-09-19T22:14:26.366Z,18.80
2018-09-19T22:16:56.637Z,18.80
2018-09-19T22:19:27.053Z,18.70
2018-09-19T22:21:57.502Z,18.70
2018-09-19T22:24:27.886Z,18.70
2018-09-19T22:26:58.293Z,18.60
2018-09-19T22:29:28.727Z,18.70
2018-09-19T22:31:59.049Z,18.70
2018-09-19T22:34:29.456Z,18.60
2018-09-19T22:37:19.182Z,18.70
2018-09-19T22:39:50.357Z,18.60
2018-09-19T22:42:21.710Z,18.60
2018-09-19T22:44:52.137Z,18.60
2018-09-19T22:47:22.548Z,18.50
2018-09-19T22:49:52.938Z,18.60
2018-09-19T22:52:24.103Z,18.60
2018-09-19T22:54:54.438Z,18.60
2018-09-19T22:57:24.836Z,18.40
2018-09-19T22:59:55.257Z,18.40
2018-09-19T23:02:25.656Z,18.50
2018-09-19T23:05:17.514Z,18.50
2018-09-19T23:07:47.910Z,18.50
2018-09-19T23:10:25.640Z,18.30
2018-09-19T23:12:56.048Z,18.30
2018-09-19T23:15:26.452Z,18.20
2018-09-19T23:17:57.359Z,18.20
2018-09-19T23:20:27.762Z,18.10
2018-09-19T23:22:58.139Z,18.10
2018-09-19T23:25:29.254Z,18.20
2018-09-19T23:28:02.476Z,18.10
2018-09-19T23:30:33.566Z,18.10
2018-09-19T23:33:03.980Z,18.10
2018-09-19T23:35:34.387Z,18.00
2018-09-19T23:38:10.966Z,17.90
2018-09-19T23:40:42.394Z,18.00
2018-09-19T23:46:03.570Z,17.90
2018-09-19T23:48:33.954Z,17.90
2018-09-19T23:51:06.316Z,17.90
2018-09-19T23:53:36.751Z,17.70
2018-09-19T23:56:07.135Z,17.70
2018-09-19T23:58:37.519Z,17.70
